Time;durP1;ratioP1;P1;durP2;ratioP2;P2;SDS_P1;SDS_P2;PMS_P1;PMS_P2;Temp;Humidity;BMP_temperature;BMP_pressure;BME280_temperature;BME280_humidity;BME280_pressure;Samples;Min_cycle;Max_cycle;Signal;HPM_P1;HPM_P2
2022/01/04 04:07:46;;;;;;;18.57;17.87;;;11.30;99.90;;;;;;6193894;22;20451;-71
2022/01/04 04:10:13;;;;;;;18.57;17.97;;;11.30;99.90;;;;;;6209087;23;20470;-70
2022/01/04 04:12:39;;;;;;;19.33;18.33;;;11.30;99.90;;;;;;6211081;23;20693;-71
2022/01/04 04:15:08;;;;;;;18.40;17.70;;;11.30;99.90;;;;;;6211004;23;20405;-71
2022/01/04 04:17:36;;;;;;;18.83;18.10;;;11.30;99.90;;;;;;6211461;23;20976;-72
2022/01/04 04:20:04;;;;;;;19.43;18.53;;;11.30;99.90;;;;;;6211668;23;20416;-72
2022/01/04 04:22:31;;;;;;;18.60;17.80;;;11.30;99.90;;;;;;6211690;23;20448;-71
2022/01/04 04:24:59;;;;;;;19.43;18.63;;;11.30;99.90;;;;;;6211761;23;20417;-71
2022/01/04 04:27:25;;;;;;;18.83;18.10;;;11.30;99.90;;;;;;6211830;23;20486;-72
2022/01/04 04:29:52;;;;;;;19.13;18.33;;;11.30;99.90;;;;;;6211608;23;20469;-71
2022/01/04 04:32:19;;;;;;;20.97;19.37;;;11.30;99.90;;;;;;6211694;23;20405;-71
2022/01/04 04:34:45;;;;;;;19.80;18.90;;;11.30;99.90;;;;;;6211873;23;20408;-71
2022/01/04 04:37:12;;;;;;;20.13;19.30;;;11.30;99.90;;;;;;6211189;23;20412;-71
2022/01/04 04:39:39;;;;;;;20.53;19.63;;;11.40;99.90;;;;;;6211628;23;20412;-72
2022/01/04 04:42:08;;;;;;;21.50;20.40;;;11.40;99.90;;;;;;6211145;23;20440;-72
2022/01/04 04:44:35;;;;;;;25.63;24.63;;;11.50;99.90;;;;;;6211863;23;20780;-73
2022/01/04 04:47:01;;;;;;;25.70;24.70;;;11.50;99.90;;;;;;6212280;23;20415;-73
2022/01/04 04:49:28;;;;;;;24.30;23.40;;;11.40;99.90;;;;;;6211859;23;20408;-73
2022/01/04 04:51:59;;;;;;;25.00;24.00;;;11.40;99.90;;;;;;6211309;23;20459;-73
2022/01/04 04:54:26;;;;;;;24.87;23.97;;;11.50;99.90;;;;;;6211561;23;20444;-73
2022/01/04 04:56:52;;;;;;;24.63;23.73;;;11.50;99.90;;;;;;6211523;23;20412;-72
2022/01/04 04:59:21;;;;;;;25.03;24.03;;;11.60;99.90;;;;;;6211904;23;20409;-72
2022/01/04 05:01:47;;;;;;;25.00;24.00;;;11.50;99.90;;;;;;6213644;23;20770;-72
2022/01/04 05:04:14;;;;;;;25.77;24.67;;;11.50;99.90;;;;;;6214126;23;20412;-73
2022/01/04 05:06:41;;;;;;;24.87;23.90;;;11.60;99.90;;;;;;6194819;23;20491;-72
2022/01/04 05:09:08;;;;;;;24.80;23.80;;;11.60;99.90;;;;;;6213390;23;20397;-72
2022/01/04 05:11:34;;;;;;;26.57;25.47;;;11.60;99.90;;;;;;6213909;23;20412;-72
2022/01/04 05:14:01;;;;;;;25.93;24.83;;;11.60;99.90;;;;;;6213770;23;20417;-72
2022/01/04 05:16:29;;;;;;;27.30;26.10;;;11.60;99.90;;;;;;6212410;23;20409;-72
2022/01/04 05:18:55;;;;;;;27.23;26.10;;;11.60;99.90;;;;;;6213200;23;20790;-72
2022/01/04 05:21:22;;;;;;;26.10;25.10;;;11.60;99.90;;;;;;6213186;23;20440;-72
2022/01/04 05:23:50;;;;;;;27.23;26.20;;;11.60;99.90;;;;;;6213698;23;20408;-73
2022/01/04 05:26:16;;;;;;;28.50;27.30;;;11.60;99.90;;;;;;6213556;23;20497;-72
2022/01/04 05:28:45;;;;;;;28.77;27.50;;;11.60;99.90;;;;;;6213399;23;20463;-73
2022/01/04 05:31:12;;;;;;;29.10;27.90;;;11.60;99.90;;;;;;6213277;23;20404;-73
2022/01/04 05:33:40;;;;;;;27.60;26.50;;;11.60;99.90;;;;;;6213030;23;20734;-73
2022/01/04 05:36:07;;;;;;;31.00;29.70;;;11.60;99.90;;;;;;6213234;23;20413;-73
2022/01/04 05:38:34;;;;;;;31.40;29.90;;;11.60;99.90;;;;;;6213161;23;20405;-74
2022/01/04 05:41:00;;;;;;;29.60;28.40;;;11.60;99.90;;;;;;6213750;23;20466;-74
2022/01/04 05:43:27;;;;;;;28.97;27.77;;;11.60;99.90;;;;;;6212669;23;20955;-74
2022/01/04 05:45:54;;;;;;;29.00;27.80;;;11.60;99.90;;;;;;6212758;23;20959;-74
2022/01/04 05:48:21;;;;;;;29.40;28.20;;;11.50;99.90;;;;;;6213321;23;20418;-74
2022/01/04 05:50:49;;;;;;;28.97;27.77;;;11.50;99.90;;;;;;6213424;23;20784;-73
2022/01/04 05:53:17;;;;;;;29.30;27.90;;;11.50;99.90;;;;;;6212967;23;20404;-75
2022/01/04 05:55:43;;;;;;;30.60;29.20;;;11.50;99.90;;;;;;6212947;23;20420;-74
2022/01/04 05:58:10;;;;;;;29.93;28.67;;;11.40;99.90;;;;;;6213062;23;20409;-75
2022/01/04 06:00:37;;;;;;;30.00;28.70;;;11.30;99.90;;;;;;6213076;23;20409;-74
2022/01/04 06:03:04;;;;;;;29.67;28.37;;;11.30;99.90;;;;;;6212954;23;20454;-74
2022/01/04 06:05:32;;;;;;;31.20;29.80;;;11.30;99.90;;;;;;6213076;23;20429;-73
2022/01/04 06:08:00;;;;;;;32.33;30.93;;;11.20;99.90;;;;;;6212105;23;20444;-74
2022/01/04 06:10:26;;;;;;;31.47;29.73;;;11.10;99.90;;;;;;6212640;23;20656;-73
2022/01/04 06:15:46;;;;;;;31.47;30.07;;;11.00;99.90;;;;;;6141697;23;20470;-73
2022/01/04 06:18:12;;;;;;;32.30;30.80;;;11.00;99.90;;;;;;6211998;23;20454;-73
2022/01/04 06:20:39;;;;;;;31.80;30.40;;;11.00;99.90;;;;;;6212864;23;20417;-73
2022/01/04 06:23:07;;;;;;;31.87;30.47;;;10.90;99.90;;;;;;6212551;23;20494;-73
2022/01/04 06:25:34;;;;;;;32.60;31.10;;;10.90;99.90;;;;;;6213100;23;20414;-73
2022/01/04 06:28:02;;;;;;;31.13;29.77;;;10.90;99.90;;;;;;6212732;23;20787;-72
2022/01/04 06:30:29;;;;;;;28.77;27.47;;;10.90;99.90;;;;;;6213321;23;20413;-72
2022/01/04 06:32:56;;;;;;;31.30;29.90;;;10.90;99.90;;;;;;6212202;23;20408;-73
2022/01/04 06:35:25;;;;;;;30.80;29.50;;;10.90;99.90;;;;;;6212448;23;20915;-73
2022/01/04 06:37:51;;;;;;;30.30;28.90;;;10.90;99.90;;;;;;6212645;23;20738;-73
2022/01/04 06:40:20;;;;;;;29.57;28.27;;;10.90;99.90;;;;;;6212587;23;20408;-72
2022/01/04 06:42:46;;;;;;;30.73;29.30;;;11.00;99.90;;;;;;6212633;23;20470;-72
2022/01/04 06:45:14;;;;;;;30.10;28.90;;;10.90;99.90;;;;;;6212702;23;20789;-72
2022/01/04 06:47:41;;;;;;;30.80;29.50;;;11.00;99.90;;;;;;6212564;23;20473;-77
2022/01/04 06:50:09;;;;;;;31.03;29.53;;;11.00;99.90;;;;;;6212745;23;20459;-72
2022/01/04 06:52:36;;;;;;;31.10;29.80;;;11.00;99.90;;;;;;6212689;23;20406;-72
2022/01/04 06:55:03;;;;;;;29.37;28.17;;;11.00;99.90;;;;;;6212574;23;20420;-72
2022/01/04 06:57:31;;;;;;;30.87;29.57;;;11.00;99.90;;;;;;6212953;23;20404;-71
2022/01/04 06:59:58;;;;;;;30.93;29.20;;;11.00;99.90;;;;;;6212228;23;20714;-71
2022/01/04 07:02:25;;;;;;;30.97;29.67;;;11.00;99.90;;;;;;6212339;23;20770;-72
2022/01/04 07:04:51;;;;;;;31.20;29.90;;;11.10;99.90;;;;;;6212225;23;20408;-72
2022/01/04 07:07:18;;;;;;;31.80;30.43;;;11.10;99.90;;;;;;6212042;23;20471;-72
2022/01/04 07:09:45;;;;;;;32.37;30.80;;;11.20;99.90;;;;;;6212243;23;20409;-72
2022/01/04 07:12:11;;;;;;;32.60;31.20;;;11.20;99.90;;;;;;6212199;23;20800;-75
2022/01/04 07:14:39;;;;;;;32.07;30.77;;;11.20;99.90;;;;;;6211517;23;20420;-73
2022/01/04 07:17:06;;;;;;;31.77;30.27;;;11.30;99.90;;;;;;6212327;23;20717;-72
2022/01/04 07:19:33;;;;;;;31.57;30.20;;;11.30;99.90;;;;;;6212349;23;20478;-72
2022/01/04 07:22:00;;;;;;;31.07;29.77;;;11.30;99.90;;;;;;6211925;23;20437;-72
2022/01/04 07:24:26;;;;;;;30.60;29.30;;;11.30;99.90;;;;;;6211361;23;20836;-72
2022/01/04 07:26:53;;;;;;;31.90;30.50;;;11.30;99.90;;;;;;6211936;23;20700;-73
2022/01/04 07:29:20;;;;;;;31.73;30.43;;;11.40;99.90;;;;;;6212272;23;20459;-73
2022/01/04 07:31:48;;;;;;;30.20;28.67;;;11.40;99.90;;;;;;6212662;23;20767;-72
2022/01/04 07:34:15;;;;;;;32.20;30.77;;;11.40;99.90;;;;;;6212215;23;20785;-73
2022/01/04 07:36:42;;;;;;;30.60;29.30;;;11.40;99.90;;;;;;6211965;23;20674;-73
2022/01/04 07:39:08;;;;;;;31.03;29.53;;;11.40;99.90;;;;;;6211654;23;20410;-72
2022/01/04 07:41:35;;;;;;;32.37;30.77;;;11.40;99.90;;;;;;6211718;23;20405;-75
2022/01/04 07:44:02;;;;;;;31.03;29.63;;;11.40;99.90;;;;;;6212225;23;20409;-75
2022/01/04 07:46:29;;;;;;;30.37;29.17;;;11.50;99.90;;;;;;6211937;23;20413;-75
2022/01/04 07:48:57;;;;;;;31.13;29.83;;;11.50;99.90;;;;;;6212014;23;20417;-76
2022/01/04 07:51:23;;;;;;;29.63;28.43;;;11.50;99.90;;;;;;6211451;23;20408;-76
2022/01/04 07:53:50;;;;;;;28.93;27.73;;;11.50;99.90;;;;;;6211799;23;20922;-75
2022/01/04 07:56:17;;;;;;;30.53;28.93;;;11.50;99.90;;;;;;6212109;23;20421;-76
2022/01/04 07:58:44;;;;;;;29.50;28.10;;;9.10;99.90;;;;;;6207346;23;20409;-72
2022/01/04 08:01:10;;;;;;;29.23;28.03;;;11.60;99.90;;;;;;6209282;23;21106;-72
2022/01/04 08:03:37;;;;;;;28.17;27.07;;;11.60;99.90;;;;;;6211653;23;20449;-71
2022/01/04 08:06:05;;;;;;;29.60;28.40;;;11.60;99.90;;;;;;6212202;23;20511;-73
2022/01/04 08:08:32;;;;;;;28.73;27.40;;;11.60;99.90;;;;;;6211705;23;20440;-73
2022/01/04 08:10:59;;;;;;;28.03;26.73;;;11.70;99.90;;;;;;6211917;23;20419;-73
2022/01/04 08:13:29;;;;;;;29.23;27.90;;;11.70;99.90;;;;;;6211631;23;20896;-72
2022/01/04 08:15:56;;;;;;;29.23;28.13;;;11.70;99.90;;;;;;6211801;23;20401;-73
2022/01/04 08:18:23;;;;;;;29.83;28.63;;;11.80;99.90;;;;;;6209329;23;20400;-73
2022/01/04 08:20:53;;;;;;;30.43;29.23;;;11.90;99.90;;;;;;6212029;23;20393;-72
2022/01/04 08:23:22;;;;;;;30.20;28.80;;;12.00;99.90;;;;;;6212014;23;20425;-74
2022/01/04 08:25:48;;;;;;;30.97;29.67;;;12.10;99.90;;;;;;6211573;23;20417;-73
2022/01/04 08:28:15;;;;;;;32.20;30.80;;;12.20;99.90;;;;;;6211875;23;20745;-75
2022/01/04 08:30:43;;;;;;;32.67;31.37;;;12.30;99.90;;;;;;6211675;23;20832;-74
2022/01/04 08:33:09;;;;;;;31.27;30.07;;;12.40;99.90;;;;;;6211722;23;20520;-74
2022/01/04 08:35:36;;;;;;;30.57;29.37;;;12.40;99.90;;;;;;6213460;23;20417;-73
2022/01/04 08:38:03;;;;;;;31.00;29.80;;;12.50;99.90;;;;;;6214185;23;20408;-72
2022/01/04 08:40:31;;;;;;;29.10;28.00;;;12.60;99.90;;;;;;6214189;23;20765;-72
2022/01/04 08:42:58;;;;;;;28.10;27.00;;;12.70;99.90;;;;;;6213715;23;20479;-72
2022/01/04 08:45:25;;;;;;;28.37;27.27;;;12.80;99.90;;;;;;6213700;23;20416;-72
2022/01/04 08:47:52;;;;;;;29.43;28.03;;;12.80;99.90;;;;;;6213830;23;20404;-72
2022/01/04 08:50:20;;;;;;;28.30;27.20;;;12.90;99.90;;;;;;6213676;23;20439;-72
2022/01/04 08:52:49;;;;;;;26.67;25.60;;;12.90;99.90;;;;;;6213983;23;20436;-72
2022/01/04 08:55:16;;;;;;;25.20;24.00;;;13.00;99.90;;;;;;6213179;23;20895;-71
2022/01/04 08:57:44;;;;;;;23.27;22.37;;;13.10;99.90;;;;;;6212949;23;20463;-71
2022/01/04 09:00:12;;;;;;;20.83;20.13;;;13.20;99.90;;;;;;6213357;23;20404;-71
2022/01/04 09:02:38;;;;;;;19.97;19.17;;;13.20;99.90;;;;;;6213324;23;20767;-71
2022/01/04 09:05:06;;;;;;;17.90;17.30;;;13.20;99.90;;;;;;6213683;23;20419;-71
2022/01/04 09:07:33;;;;;;;17.23;16.63;;;13.20;99.90;;;;;;6213507;23;20440;-71
2022/01/04 09:10:00;;;;;;;16.53;15.77;;;13.30;99.90;;;;;;6213550;23;20718;-72
2022/01/04 09:12:37;;;;;;;15.70;15.10;;;13.50;99.90;;;;;;6213071;23;20912;-71
2022/01/04 09:15:28;;;;;;;15.17;14.67;;;13.50;99.90;;;;;;6213853;23;20456;-72
2022/01/04 09:20:38;;;;;;;16.10;15.30;;;13.80;99.90;;;;;;6213101;23;20376;-72
2022/01/04 09:23:05;;;;;;;16.70;16.20;;;13.70;99.90;;;;;;6213517;23;20444;-72
2022/01/04 09:25:31;;;;;;;17.30;16.70;;;13.80;99.90;;;;;;6213081;23;20888;-72
2022/01/04 09:27:58;;;;;;;17.37;16.67;;;13.60;99.90;;;;;;6213069;23;20416;-72
2022/01/04 09:30:26;;;;;;;17.30;16.70;;;13.60;99.90;;;;;;6213291;23;21197;-73
2022/01/04 09:32:53;;;;;;;20.83;20.10;;;13.50;99.90;;;;;;6213301;23;20412;-73
2022/01/04 09:35:20;;;;;;;21.63;20.90;;;13.40;99.90;;;;;;6213362;23;20479;-73
2022/01/04 09:37:47;;;;;;;23.20;22.40;;;13.40;99.90;;;;;;6213510;23;20405;-73
2022/01/04 09:40:13;;;;;;;24.17;23.27;;;13.40;99.90;;;;;;6213213;23;20470;-72
2022/01/04 09:42:40;;;;;;;25.50;24.40;;;13.30;99.90;;;;;;6213151;23;20445;-72
2022/01/04 09:45:08;;;;;;;25.30;24.30;;;13.30;99.90;;;;;;6213086;23;20408;-73
2022/01/04 09:47:36;;;;;;;24.80;23.80;;;13.20;99.90;;;;;;6213075;23;20443;-73
2022/01/04 09:50:08;;;;;;;24.73;23.83;;;13.20;99.90;;;;;;6211114;23;20781;-73
2022/01/04 09:52:36;;;;;;;24.77;23.80;;;13.20;99.90;;;;;;6213072;23;20433;-72
2022/01/04 09:55:03;;;;;;;24.83;23.93;;;13.20;99.90;;;;;;6213424;23;20440;-72
2022/01/04 09:57:30;;;;;;;25.00;24.10;;;13.20;99.90;;;;;;6213023;23;20409;-73
2022/01/04 09:59:56;;;;;;;24.93;24.03;;;13.20;99.90;;;;;;6213046;23;20411;-73
2022/01/04 10:02:30;;;;;;;25.73;24.63;;;13.30;99.90;;;;;;6212758;23;20409;-72
2022/01/04 10:05:13;;;;;;;25.53;24.53;;;13.20;99.90;;;;;;6212775;23;20393;-73
2022/01/04 10:07:40;;;;;;;25.93;25.03;;;13.20;99.90;;;;;;6212597;23;20581;-72
2022/01/04 10:10:10;;;;;;;24.23;23.37;;;13.20;99.90;;;;;;6212579;23;20493;-72
2022/01/04 10:12:50;;;;;;;24.20;23.40;;;13.30;99.90;;;;;;6212766;23;20409;-72
2022/01/04 10:15:33;;;;;;;24.50;23.47;;;13.30;99.90;;;;;;6213350;23;20397;-73
2022/01/04 10:18:04;;;;;;;24.83;23.93;;;13.30;99.90;;;;;;6212716;23;20405;-73
2022/01/04 10:20:32;;;;;;;21.80;20.80;;;13.30;99.90;;;;;;6213577;23;20389;-72
2022/01/04 10:23:10;;;;;;;22.30;21.50;;;13.30;99.90;;;;;;6213011;23;20445;-74
2022/01/04 10:25:37;;;;;;;21.60;20.80;;;13.30;99.90;;;;;;6211725;23;20393;-72
2022/01/04 10:28:05;;;;;;;21.93;21.10;;;13.30;99.90;;;;;;6213050;23;20417;-72
2022/01/04 10:30:32;;;;;;;21.70;20.90;;;13.40;99.90;;;;;;6212752;23;20408;-72
2022/01/04 10:33:01;;;;;;;21.53;20.67;;;13.40;99.90;;;;;;6212182;23;20437;-73
2022/01/04 10:35:36;;;;;;;19.67;18.97;;;13.50;99.90;;;;;;6212154;23;20409;-73
2022/01/04 10:38:11;;;;;;;17.67;17.07;;;13.60;99.90;;;;;;6212638;23;20389;-71
2022/01/04 10:40:38;;;;;;;16.53;15.93;;;13.60;99.90;;;;;;6212347;23;20388;-72
2022/01/04 10:43:10;;;;;;;16.30;15.70;;;13.70;99.90;;;;;;6212483;23;20448;-71
2022/01/04 10:45:39;;;;;;;15.80;15.20;;;13.80;99.90;;;;;;6212164;23;20412;-72
2022/01/04 10:48:14;;;;;;;14.17;13.70;;;13.80;99.90;;;;;;6212418;23;20423;-72
2022/01/04 10:50:44;;;;;;;16.10;14.67;;;13.90;99.90;;;;;;6212225;23;20393;-72
2022/01/04 10:53:23;;;;;;;13.60;13.10;;;14.10;99.90;;;;;;6211840;23;20401;-72
2022/01/04 10:55:50;;;;;;;15.00;14.40;;;14.20;99.90;;;;;;6212413;23;20452;-72
2022/01/04 10:58:23;;;;;;;15.00;14.50;;;14.10;99.90;;;;;;6211599;23;20708;-72
2022/01/04 11:00:51;;;;;;;14.70;14.03;;;14.00;99.90;;;;;;6212099;23;20409;-71
2022/01/04 11:03:24;;;;;;;15.83;15.27;;;14.00;99.90;;;;;;6212381;23;20495;-72
2022/01/04 11:05:55;;;;;;;18.73;16.13;;;13.90;99.90;;;;;;6212153;23;20467;-72
2022/01/04 11:08:22;;;;;;;15.80;15.00;;;13.90;99.90;;;;;;6211693;23;20811;-72
2022/01/04 11:10:50;;;;;;;14.97;14.37;;;13.80;99.90;;;;;;6212394;23;20413;-72
2022/01/04 11:13:16;;;;;;;14.40;13.80;;;13.80;99.90;;;;;;6212397;23;20459;-72
2022/01/04 11:15:43;;;;;;;12.97;12.47;;;13.80;99.90;;;;;;6211910;23;20428;-72
2022/01/04 11:18:11;;;;;;;11.73;11.33;;;13.90;99.90;;;;;;6211930;23;20405;-71
2022/01/04 11:20:41;;;;;;;12.30;11.90;;;13.90;99.90;;;;;;6211968;23;20412;-71
2022/01/04 11:23:09;;;;;;;11.63;11.07;;;14.10;99.90;;;;;;6211751;23;20445;-71
2022/01/04 11:25:37;;;;;;;12.00;11.60;;;14.20;99.90;;;;;;6211880;23;20728;-71
2022/01/04 11:28:06;;;;;;;12.23;11.83;;;14.30;99.90;;;;;;6212108;23;20416;-72
2022/01/04 11:30:40;;;;;;;11.67;11.20;;;14.30;99.90;;;;;;6212285;23;20415;-72
2022/01/04 11:33:14;;;;;;;12.63;12.13;;;14.20;99.90;;;;;;6211580;23;20864;-72
2022/01/04 11:35:41;;;;;;;13.07;12.57;;;14.20;99.90;;;;;;6211587;23;20400;-73
2022/01/04 11:38:09;;;;;;;15.43;14.60;;;14.10;99.90;;;;;;6211788;23;20407;-72
2022/01/04 11:40:41;;;;;;;14.00;13.50;;;14.10;99.90;;;;;;6211518;23;20417;-72
2022/01/04 11:43:26;;;;;;;14.33;13.83;;;14.00;99.90;;;;;;6211567;23;20425;-72
2022/01/04 11:45:53;;;;;;;14.00;13.50;;;13.90;99.90;;;;;;6211987;23;20769;-72
2022/01/04 11:48:32;;;;;;;15.63;15.03;;;13.90;99.90;;;;;;6212385;23;20467;-73
2022/01/04 11:51:01;;;;;;;16.30;15.40;;;13.80;99.90;;;;;;6211834;23;20400;-72
2022/01/04 11:53:29;;;;;;;17.13;16.37;;;13.70;99.90;;;;;;6211330;23;20413;-72
2022/01/04 11:56:00;;;;;;;18.17;17.47;;;13.70;99.90;;;;;;6211400;23;20900;-72
2022/01/04 11:58:41;;;;;;;19.70;18.73;;;13.60;99.90;;;;;;6211439;23;20761;-72
2022/01/04 12:01:08;;;;;;;20.10;19.30;;;13.50;99.90;;;;;;6211767;23;20767;-71
2022/01/04 12:03:41;;;;;;;18.70;17.80;;;13.50;99.90;;;;;;6211667;23;20447;-72
2022/01/04 12:06:08;;;;;;;19.40;18.60;;;13.40;99.90;;;;;;6211108;23;21014;-72
2022/01/04 12:08:39;;;;;;;19.43;18.53;;;13.40;99.90;;;;;;6211222;23;20475;-71
2022/01/04 12:11:20;;;;;;;20.03;19.23;;;13.40;99.90;;;;;;6211635;23;20393;-71
2022/01/04 12:13:50;;;;;;;20.07;19.27;;;13.30;99.90;;;;;;6211980;23;20758;-73
2022/01/04 12:16:30;;;;;;;20.03;19.17;;;13.30;99.90;;;;;;6211381;23;20428;-72
2022/01/04 12:18:58;;;;;;;19.60;18.70;;;13.30;99.90;;;;;;6211679;23;20405;-73
2022/01/04 12:21:27;;;;;;;19.97;18.80;;;13.30;99.90;;;;;;6211019;23;20412;-73
2022/01/04 12:23:56;;;;;;;19.13;18.43;;;13.30;99.90;;;;;;6211003;23;20440;-74
2022/01/04 12:26:26;;;;;;;19.50;18.80;;;13.30;99.90;;;;;;6211458;23;20519;-73
2022/01/04 12:29:19;;;;;;;20.17;19.37;;;13.30;99.90;;;;;;6211390;23;20419;-73
2022/01/04 12:31:47;;;;;;;19.40;18.60;;;13.30;99.90;;;;;;6211766;23;20432;-73
2022/01/04 12:34:32;;;;;;;19.60;18.90;;;13.30;99.90;;;;;;6209067;23;20420;-73
2022/01/04 12:37:00;;;;;;;19.83;19.13;;;13.30;99.90;;;;;;6211792;23;20397;-73
2022/01/04 12:39:50;;;;;;;20.60;19.80;;;13.20;99.90;;;;;;6211672;23;20408;-73
2022/01/04 12:42:18;;;;;;;21.20;20.40;;;13.20;99.90;;;;;;6202216;23;20464;-73
2022/01/04 12:44:51;;;;;;;21.00;20.20;;;13.20;99.90;;;;;;6211591;23;20448;-73
2022/01/04 12:47:20;;;;;;;20.30;19.50;;;13.20;99.90;;;;;;6211906;23;20751;-72
2022/01/04 12:49:47;;;;;;;19.83;19.03;;;13.20;99.90;;;;;;6211787;23;20762;-73
2022/01/04 12:52:17;;;;;;;20.37;19.67;;;13.20;99.90;;;;;;6211974;23;20435;-72
2022/01/04 12:54:44;;;;;;;20.47;19.67;;;13.10;99.90;;;;;;6211275;23;20404;-72
2022/01/04 12:57:14;;;;;;;20.50;19.70;;;13.10;99.90;;;;;;6211552;23;20893;-73
2022/01/04 12:59:42;;;;;;;21.47;20.60;;;13.20;99.90;;;;;;6211563;23;20756;-73
2022/01/04 13:02:14;;;;;;;22.20;21.37;;;13.10;99.90;;;;;;6209612;23;20496;-73
2022/01/04 13:04:43;;;;;;;26.00;25.00;;;13.10;99.90;;;;;;6209135;23;20859;-73
2022/01/04 13:07:18;;;;;;;28.00;27.00;;;13.00;99.90;;;;;;6211217;23;20445;-72
2022/01/04 13:09:50;;;;;;;29.57;28.30;;;13.00;99.90;;;;;;6211741;23;20400;-75
2022/01/04 13:12:22;;;;;;;31.00;29.70;;;13.00;99.90;;;;;;6211649;23;20401;-76
2022/01/04 13:14:48;;;;;;;32.80;31.30;;;13.00;99.90;;;;;;6212213;23;20712;-77
2022/01/04 13:17:15;;;;;;;31.87;30.57;;;12.90;99.90;;;;;;6211895;23;20416;-76
2022/01/04 13:19:43;;;;;;;32.07;30.80;;;12.80;99.90;;;;;;6211344;23;20701;-75
2022/01/04 13:22:13;;;;;;;33.40;31.80;;;12.90;99.90;;;;;;6212905;23;20412;-76
2022/01/04 13:24:42;;;;;;;32.43;31.13;;;12.70;99.90;;;;;;6213571;23;20438;-76
2022/01/04 13:27:27;;;;;;;32.53;31.23;;;12.70;99.90;;;;;;6213583;23;20413;-76
2022/01/04 13:29:56;;;;;;;33.33;31.87;;;12.70;99.90;;;;;;6213616;23;20393;-77
2022/01/04 13:32:26;;;;;;;34.40;32.80;;;12.70;99.90;;;;;;6213465;23;20463;-78
2022/01/04 13:34:58;;;;;;;34.17;32.67;;;12.70;99.90;;;;;;6213381;23;20416;-77
2022/01/04 13:37:25;;;;;;;34.13;32.73;;;12.70;99.90;;;;;;6212426;23;20397;-77
2022/01/04 13:39:52;;;;;;;34.50;33.00;;;12.70;99.90;;;;;;6213471;23;20799;-77
2022/01/04 13:42:36;;;;;;;34.23;32.83;;;12.60;99.90;;;;;;6213873;23;20416;-77
2022/01/04 13:45:15;;;;;;;34.77;32.93;;;12.60;99.90;;;;;;6213048;23;20435;-76
2022/01/04 13:47:45;;;;;;;33.70;32.23;;;12.60;99.90;;;;;;6213583;23;20405;-76
2022/01/04 13:50:16;;;;;;;34.50;32.97;;;12.60;99.90;;;;;;6213593;23;20409;-77
2022/01/04 13:52:54;;;;;;;33.37;31.90;;;12.70;99.90;;;;;;6213183;23;20724;-76
2022/01/04 13:55:20;;;;;;;33.40;32.00;;;12.60;99.90;;;;;;6213505;23;20395;-77
2022/01/04 13:57:48;;;;;;;32.70;31.30;;;12.60;99.90;;;;;;6212995;23;20432;-76
2022/01/04 14:00:34;;;;;;;34.10;32.60;;;12.60;99.90;;;;;;6213250;23;20412;-76
2022/01/04 14:03:00;;;;;;;34.23;32.63;;;12.60;99.90;;;;;;6213337;23;20424;-76
2022/01/04 14:05:36;;;;;;;32.97;31.57;;;12.60;99.90;;;;;;6212841;23;20460;-78
2022/01/04 14:08:04;;;;;;;32.33;30.93;;;12.60;99.90;;;;;;6213128;23;20436;-77
2022/01/04 14:10:53;;;;;;;35.37;33.87;;;12.50;99.90;;;;;;6212047;23;20423;-76
2022/01/04 14:13:32;;;;;;;37.27;35.47;;;12.00;99.90;;;;;;6213723;23;20398;-76
2022/01/04 14:16:09;;;;;;;36.53;34.80;;;11.30;99.90;;;;;;6212638;23;20444;-75
2022/01/04 14:18:36;;;;;;;33.00;31.50;;;10.60;99.90;;;;;;6213433;23;20729;-76
2022/01/04 14:21:04;;;;;;;32.90;31.40;;;10.30;99.90;;;;;;6212096;23;20415;-75
2022/01/04 14:23:35;;;;;;;34.20;32.73;;;10.10;99.90;;;;;;6212349;23;20409;-76
2022/01/04 14:26:05;;;;;;;34.03;32.53;;;10.00;99.90;;;;;;6213232;23;20412;-75
2022/01/04 14:28:33;;;;;;;32.93;31.63;;;9.90;99.90;;;;;;6212628;23;20444;-76
2022/01/04 14:31:00;;;;;;;31.50;30.30;;;9.70;99.90;;;;;;6212033;23;20418;-76
2022/01/04 14:33:27;;;;;;;31.20;29.90;;;9.50;99.90;;;;;;6211934;23;20416;-76
2022/01/04 14:35:56;;;;;;;31.40;29.80;;;9.40;99.90;;;;;;6211574;23;20743;-76
2022/01/04 14:38:22;;;;;;;30.80;29.60;;;9.30;99.90;;;;;;6211771;23;20413;-77
2022/01/04 14:40:49;;;;;;;29.13;28.03;;;9.30;99.90;;;;;;6212314;23;20781;-76
2022/01/04 14:43:16;;;;;;;32.07;30.67;;;9.10;99.90;;;;;;6212312;23;20440;-76
2022/01/04 14:45:44;;;;;;;31.57;30.37;;;9.00;99.90;;;;;;6211600;23;20451;-76
2022/01/04 14:48:13;;;;;;;31.10;29.90;;;8.90;99.90;;;;;;6212394;23;20946;-75
2022/01/04 14:50:40;;;;;;;33.00;31.30;;;8.70;99.90;;;;;;6211964;23;20404;-76
2022/01/04 14:53:07;;;;;;;31.67;30.40;;;8.70;99.90;;;;;;6211981;23;20413;-76
2022/01/04 14:55:33;;;;;;;31.00;29.80;;;8.80;99.90;;;;;;6212243;23;20459;-76
2022/01/04 14:58:00;;;;;;;32.10;30.80;;;8.80;99.90;;;;;;6212164;23;20409;-77
2022/01/04 15:00:27;;;;;;;31.80;30.40;;;8.80;99.90;;;;;;6212486;23;20807;-76
2022/01/04 15:02:55;;;;;;;33.10;31.80;;;8.80;99.90;;;;;;6211797;23;20412;-75
2022/01/04 15:05:22;;;;;;;32.43;31.13;;;8.80;99.90;;;;;;6211519;23;20456;-76
2022/01/04 15:07:50;;;;;;;32.77;31.47;;;8.80;99.90;;;;;;6211709;23;20499;-76
2022/01/04 15:10:17;;;;;;;33.10;31.70;;;8.80;99.90;;;;;;6212326;23;20983;-76
2022/01/04 15:12:44;;;;;;;33.80;32.37;;;8.60;99.90;;;;;;6212186;23;20409;-76
2022/01/04 15:16:00;;;;;;;32.57;31.27;;;8.50;99.90;;;;;;6212661;23;20412;-76
2022/01/04 15:18:28;;;;;;;31.90;30.70;;;8.30;99.90;;;;;;6209905;23;20416;-76
2022/01/04 15:20:55;;;;;;;32.33;31.03;;;8.20;99.90;;;;;;6212261;23;20413;-75
2022/01/04 15:23:21;;;;;;;37.70;34.70;;;8.10;99.90;;;;;;6212390;23;20467;-76
2022/01/04 15:25:50;;;;;;;33.47;32.00;;;8.00;99.90;;;;;;6212495;23;20444;-74
2022/01/04 15:28:17;;;;;;;33.03;31.63;;;7.90;99.90;;;;;;6212495;23;20456;-76
2022/01/04 15:30:44;;;;;;;33.03;31.63;;;7.80;99.90;;;;;;6212037;23;20455;-76
2022/01/04 15:33:15;;;;;;;33.97;32.67;;;7.80;99.90;;;;;;6212095;23;20635;-76
2022/01/04 15:35:44;;;;;;;32.37;30.97;;;7.70;99.90;;;;;;6211685;23;20389;-76
2022/01/04 15:38:11;;;;;;;32.93;31.43;;;7.80;99.90;;;;;;6211722;23;20997;-76
2022/01/04 15:40:38;;;;;;;34.03;32.53;;;7.80;99.90;;;;;;6211616;23;20416;-76
2022/01/04 15:43:05;;;;;;;33.03;31.73;;;7.80;99.90;;;;;;6212208;23;20420;-76
2022/01/04 15:45:32;;;;;;;32.70;31.40;;;7.80;99.90;;;;;;6211837;23;20440;-76
2022/01/04 15:47:59;;;;;;;32.30;31.00;;;7.90;99.90;;;;;;6211688;23;20409;-73
2022/01/04 15:50:26;;;;;;;32.60;31.30;;;7.80;99.90;;;;;;6211922;23;20408;-75
2022/01/04 15:52:54;;;;;;;31.73;30.33;;;7.70;99.90;;;;;;6211849;23;20409;-76
2022/01/04 15:55:22;;;;;;;32.27;30.70;;;7.70;99.90;;;;;;6212077;23;20413;-76
2022/01/04 15:57:49;;;;;;;31.83;30.57;;;7.80;99.90;;;;;;6212283;23;20423;-75
2022/01/04 16:00:17;;;;;;;31.13;29.83;;;7.70;99.90;;;;;;6212403;23;20773;-75
2022/01/04 16:02:43;;;;;;;32.40;31.10;;;7.60;99.90;;;;;;6211967;23;20416;-75
2022/01/04 16:05:11;;;;;;;31.30;29.80;;;7.60;99.90;;;;;;6211889;23;20451;-74
2022/01/04 16:07:38;;;;;;;31.57;30.27;;;7.60;99.90;;;;;;6211581;23;20443;-75
2022/01/04 16:10:08;;;;;;;30.97;29.77;;;7.50;99.90;;;;;;6211871;23;20925;-75
2022/01/04 16:12:35;;;;;;;31.23;29.93;;;7.50;99.90;;;;;;6212277;23;20408;-75
2022/01/04 16:15:05;;;;;;;33.00;31.70;;;7.50;99.90;;;;;;6212091;23;20901;-76
2022/01/04 16:17:38;;;;;;;33.00;31.47;;;7.40;99.90;;;;;;6212243;23;20400;-76
2022/01/04 16:22:52;;;;;;;30.63;29.40;;;7.40;99.90;;;;;;6211834;23;20376;-77
2022/01/04 16:25:20;;;;;;;31.10;29.77;;;7.30;99.90;;;;;;6212068;23;20448;-76
2022/01/04 16:27:47;;;;;;;30.70;29.53;;;7.30;99.90;;;;;;6212087;23;20413;-76
2022/01/04 16:30:14;;;;;;;28.80;27.70;;;7.20;99.90;;;;;;6211363;23;20465;-76
2022/01/04 16:32:41;;;;;;;29.30;28.20;;;7.20;99.90;;;;;;6211700;23;20416;-76
2022/01/04 16:35:09;;;;;;;29.13;28.03;;;7.10;99.90;;;;;;6211515;23;20407;-76
2022/01/04 16:37:36;;;;;;;29.10;28.00;;;7.10;99.90;;;;;;6211460;23;20405;-76
2022/01/04 16:40:09;;;;;;;28.70;27.60;;;7.00;99.90;;;;;;6211910;23;20418;-76
2022/01/04 16:42:37;;;;;;;27.77;26.67;;;7.00;99.90;;;;;;6211648;23;20397;-76
2022/01/04 16:45:05;;;;;;;30.80;29.50;;;7.10;99.90;;;;;;6211724;23;20886;-75
2022/01/04 16:47:33;;;;;;;30.80;29.30;;;7.10;99.90;;;;;;6211827;23;20415;-75
2022/01/04 16:50:00;;;;;;;29.13;27.93;;;7.10;99.90;;;;;;6211752;23;20710;-76
2022/01/04 16:52:27;;;;;;;30.23;28.93;;;7.00;99.90;;;;;;6211413;23;20439;-74